createdAt,value
2019-02-23T00:01:25.756Z,53.97
2019-02-23T00:03:57.232Z,54.18
2019-02-23T00:06:30.121Z,53.57
2019-02-23T00:09:00.541Z,53.22
2019-02-23T00:11:31.319Z,53.12
2019-02-23T00:14:02.007Z,53.50
2019-02-23T00:16:32.844Z,52.95
2019-02-23T00:19:03.680Z,53.12
2019-02-23T00:21:37.293Z,52.89
2019-02-23T00:24:08.039Z,52.42
2019-02-23T00:26:38.530Z,53.29
2019-02-23T00:29:10.946Z,53.17
2019-02-23T00:31:41.675Z,53.00
2019-02-23T00:34:12.506Z,52.80
2019-02-23T00:36:43.237Z,53.28
2019-02-23T00:39:15.016Z,53.31
2019-02-23T00:41:45.837Z,53.32
2019-02-23T00:44:16.679Z,53.04
2019-02-23T00:46:47.517Z,53.18
2019-02-23T00:49:18.239Z,53.40
2019-02-23T00:51:51.698Z,53.31
2019-02-23T00:54:21.673Z,53.34
2019-02-23T00:56:52.793Z,53.69
2019-02-23T00:59:25.188Z,53.72
2019-02-23T01:01:55.899Z,53.83
2019-02-23T01:04:28.386Z,53.40
2019-02-23T01:06:58.914Z,53.71
2019-02-23T01:09:29.877Z,53.46
2019-02-23T01:12:00.718Z,53.34
2019-02-23T01:14:33.580Z,53.54
2019-02-23T01:17:04.406Z,53.79
2019-02-23T01:19:47.392Z,53.46
2019-02-23T01:22:09.668Z,53.56
2019-02-23T01:24:40.382Z,53.64
2019-02-23T01:27:11.132Z,53.47
2019-02-23T01:29:41.497Z,53.89
2019-02-23T01:32:12.256Z,54.10
2019-02-23T01:34:46.100Z,54.30
2019-02-23T01:37:19.869Z,53.92
2019-02-23T01:39:50.726Z,54.09
2019-02-23T01:42:22.037Z,54.63
2019-02-23T01:44:52.724Z,54.56
2019-02-23T01:47:23.886Z,54.31
2019-02-23T01:49:58.978Z,54.71
2019-02-23T01:52:26.884Z,54.35
2019-02-23T01:54:57.607Z,54.67
2019-02-23T01:57:28.550Z,54.98
2019-02-23T01:59:59.307Z,54.89
2019-02-23T02:02:30.946Z,55.07
2019-02-23T02:05:01.788Z,55.26
2019-02-23T02:07:32.196Z,55.09
2019-02-23T02:10:03.451Z,55.37
2019-02-23T02:12:34.293Z,55.31
2019-02-23T02:15:07.884Z,55.56
2019-02-23T02:17:40.937Z,55.81
2019-02-23T02:20:11.828Z,55.93
2019-02-23T02:22:42.755Z,55.83
2019-02-23T02:25:13.590Z,55.95
2019-02-23T02:27:44.625Z,56.26
2019-02-23T02:30:15.380Z,56.42
2019-02-23T02:32:46.237Z,56.70
2019-02-23T02:35:17.136Z,56.53
2019-02-23T02:37:47.881Z,56.88
2019-02-23T02:40:18.617Z,56.87
2019-02-23T02:42:49.446Z,57.23
2019-02-23T02:45:20.166Z,57.46
2019-02-23T02:47:50.909Z,57.12
2019-02-23T02:50:24.582Z,57.27
2019-02-23T02:52:54.130Z,57.35
2019-02-23T02:55:24.999Z,57.35
2019-02-23T02:57:55.787Z,58.06
2019-02-23T03:00:26.625Z,57.73
2019-02-23T03:02:57.469Z,57.18
2019-02-23T03:05:28.296Z,57.11
2019-02-23T03:07:59.037Z,57.49
2019-02-23T03:10:29.812Z,57.55
2019-02-23T03:13:00.601Z,57.46
2019-02-23T03:15:31.445Z,57.38
2019-02-23T03:18:01.903Z,57.70
2019-02-23T03:20:36.581Z,57.77
2019-02-23T03:23:05.087Z,58.04
2019-02-23T03:25:35.919Z,58.10
2019-02-23T03:28:06.647Z,58.13
2019-02-23T03:30:37.794Z,58.16
2019-02-23T03:33:08.554Z,58.43
2019-02-23T03:35:39.359Z,58.38
2019-02-23T03:38:10.398Z,58.13
2019-02-23T03:40:41.142Z,58.19
2019-02-23T03:43:12.336Z,58.10
2019-02-23T03:45:43.220Z,58.10
2019-02-23T03:48:14.252Z,58.07
2019-02-23T03:50:49.148Z,57.88
2019-02-23T03:53:17.463Z,57.73
2019-02-23T03:55:48.207Z,58.40
2019-02-23T03:58:19.149Z,58.43
2019-02-23T04:00:49.875Z,58.21
2019-02-23T04:03:20.609Z,58.15
2019-02-23T04:05:51.345Z,58.26
2019-02-23T04:08:21.767Z,58.04
2019-02-23T04:10:52.137Z,58.35
2019-02-23T04:13:22.528Z,58.21
2019-02-23T04:15:53.255Z,58.12
2019-02-23T04:18:23.649Z,58.23
2019-02-23T04:21:01.719Z,58.60
2019-02-23T04:23:26.811Z,58.32
2019-02-23T04:25:57.632Z,57.72
2019-02-23T04:28:28.368Z,57.81
2019-02-23T04:30:59.100Z,57.72
2019-02-23T04:33:29.831Z,57.80
2019-02-23T04:36:00.869Z,58.50
2019-02-23T04:38:31.600Z,58.11
2019-02-23T04:41:02.345Z,58.47
2019-02-23T04:43:33.078Z,58.12
2019-02-23T04:46:03.825Z,58.14
2019-02-23T04:48:34.649Z,58.33
2019-02-23T04:51:13.770Z,58.28
2019-02-23T04:53:37.854Z,58.58
2019-02-23T04:56:08.603Z,58.66
2019-02-23T04:58:39.426Z,58.50
2019-02-23T05:01:10.151Z,58.51
2019-02-23T05:03:40.797Z,58.65
2019-02-23T05:06:11.531Z,58.34
2019-02-23T05:08:42.378Z,58.50
2019-02-23T05:11:13.098Z,58.42
2019-02-23T05:13:43.828Z,58.77
2019-02-23T05:16:14.240Z,58.47
2019-02-23T05:18:44.684Z,58.63
2019-02-23T05:21:26.021Z,57.88
2019-02-23T05:23:47.989Z,58.10
2019-02-23T05:26:18.734Z,57.59
2019-02-23T05:28:49.465Z,57.60
2019-02-23T05:31:22.209Z,57.38
2019-02-23T05:33:52.692Z,58.04
2019-02-23T05:36:23.412Z,58.46
2019-02-23T05:38:54.281Z,57.78
2019-02-23T05:41:25.082Z,58.40
2019-02-23T05:43:55.494Z,58.43
2019-02-23T05:46:26.260Z,58.42
2019-02-23T05:48:56.989Z,58.42
2019-02-23T05:51:38.388Z,58.48
2019-02-23T05:54:00.384Z,58.59
2019-02-23T05:56:31.326Z,58.55
2019-02-23T05:59:02.055Z,58.70
2019-02-23T06:01:32.901Z,59.13
2019-02-23T06:04:06.183Z,59.57
2019-02-23T06:06:37.041Z,59.93
2019-02-23T06:09:07.775Z,61.19
2019-02-23T06:11:38.188Z,60.15
2019-02-23T06:14:08.558Z,59.41
2019-02-23T06:16:39.249Z,59.36
2019-02-23T06:19:10.034Z,59.26
2019-02-23T06:21:53.101Z,59.47
2019-02-23T06:24:13.306Z,59.42
2019-02-23T06:26:44.036Z,59.53
2019-02-23T06:29:14.801Z,59.42
2019-02-23T06:31:45.633Z,59.39
2019-02-23T06:34:16.864Z,59.25
2019-02-23T06:36:48.101Z,59.31
2019-02-23T06:39:18.835Z,59.47
2019-02-23T06:41:49.580Z,59.62
2019-02-23T06:44:20.301Z,59.70
2019-02-23T06:46:51.044Z,59.79
2019-02-23T06:49:21.802Z,59.64
2019-02-23T06:52:03.742Z,60.14
2019-02-23T06:54:24.966Z,59.90
2019-02-23T06:56:55.716Z,60.39
2019-02-23T06:59:26.470Z,59.98
2019-02-23T07:01:56.870Z,59.85
2019-02-23T07:04:27.612Z,59.61
2019-02-23T07:06:58.364Z,60.14
2019-02-23T07:09:29.074Z,59.61
2019-02-23T07:11:59.818Z,59.56
2019-02-23T07:14:30.568Z,59.62
2019-02-23T07:17:01.388Z,59.73
2019-02-23T07:19:32.240Z,59.46
2019-02-23T07:22:02.664Z,58.93
2019-02-23T07:24:33.397Z,58.74
2019-02-23T07:27:04.169Z,58.89
2019-02-23T07:29:34.678Z,59.00
2019-02-23T07:32:05.408Z,59.10
2019-02-23T07:34:36.150Z,59.41
2019-02-23T07:37:06.974Z,59.36
2019-02-23T07:39:37.808Z,59.39
2019-02-23T07:42:08.528Z,59.29
2019-02-23T07:44:39.467Z,59.29
2019-02-23T07:47:10.187Z,61.60
2019-02-23T07:49:40.915Z,59.64
2019-02-23T07:52:11.667Z,58.57
2019-02-23T07:54:42.403Z,58.36
2019-02-23T07:57:13.234Z,58.09
2019-02-23T07:59:43.974Z,57.76
2019-02-23T08:02:14.703Z,58.59
2019-02-23T08:04:45.451Z,58.70
2019-02-23T08:07:16.186Z,58.24
2019-02-23T08:09:46.581Z,57.64
2019-02-23T08:12:17.341Z,58.06
2019-02-23T08:14:48.184Z,58.45
2019-02-23T08:17:19.008Z,59.22
2019-02-23T08:19:49.759Z,57.88
2019-02-23T08:22:20.598Z,58.24
2019-02-23T08:24:51.444Z,57.89
2019-02-23T08:27:21.972Z,57.49
2019-02-23T08:29:52.910Z,56.06
2019-02-23T08:32:23.714Z,55.94
2019-02-23T08:34:54.476Z,55.88
2019-02-23T08:37:27.955Z,55.92
2019-02-23T08:39:58.738Z,55.79
2019-02-23T08:42:29.427Z,54.52
2019-02-23T08:45:00.242Z,54.75
2019-02-23T08:47:30.987Z,53.29
2019-02-23T08:50:01.534Z,53.73
2019-02-23T08:52:32.265Z,52.92
2019-02-23T08:55:03.053Z,53.77
2019-02-23T08:57:33.859Z,53.70
2019-02-23T09:00:07.246Z,53.08
2019-02-23T09:02:37.753Z,52.36
2019-02-23T09:05:09.521Z,51.22
2019-02-23T09:07:40.293Z,51.70
2019-02-23T09:10:15.033Z,51.63
2019-02-23T09:12:45.918Z,51.69
2019-02-23T09:15:16.751Z,51.14
2019-02-23T09:17:47.518Z,51.08
2019-02-23T09:20:28.749Z,50.36
2019-02-23T09:23:00.251Z,49.33
2019-02-23T09:25:26.449Z,49.51
2019-02-23T09:27:57.381Z,48.94
2019-02-23T09:30:28.131Z,48.57
2019-02-23T09:32:59.250Z,48.16
2019-02-23T09:35:30.029Z,46.95
2019-02-23T09:38:00.830Z,47.15
2019-02-23T09:40:31.606Z,46.11
2019-02-23T09:43:02.446Z,46.36
2019-02-23T09:45:33.254Z,46.37
2019-02-23T09:48:03.995Z,46.27
2019-02-23T09:50:34.716Z,45.84
2019-02-23T09:53:11.227Z,45.29
2019-02-23T09:55:37.992Z,44.80
2019-02-23T09:58:08.599Z,45.65
2019-02-23T10:00:40.684Z,45.87
2019-02-23T10:03:11.567Z,45.38
2019-02-23T10:05:42.320Z,43.27
2019-02-23T10:08:13.316Z,42.33
2019-02-23T10:10:44.343Z,42.65
2019-02-23T10:13:15.111Z,41.97
2019-02-23T10:15:50.349Z,41.93
2019-02-23T10:18:21.222Z,42.17
2019-02-23T10:20:52.170Z,42.58
2019-02-23T10:23:25.941Z,42.10
2019-02-23T10:25:56.769Z,42.03
2019-02-23T10:28:27.986Z,40.25
2019-02-23T10:30:58.755Z,41.50
2019-02-23T10:33:29.844Z,42.47
2019-02-23T10:36:00.651Z,41.62
2019-02-23T10:38:32.998Z,40.53
2019-02-23T10:41:03.399Z,40.05
2019-02-23T10:43:34.181Z,39.55
2019-02-23T10:46:05.632Z,41.91
2019-02-23T10:48:36.444Z,39.62
2019-02-23T10:51:06.886Z,42.50
2019-02-23T10:53:38.477Z,42.47
2019-02-23T10:56:09.623Z,41.12
2019-02-23T10:58:41.372Z,39.94
2019-02-23T11:01:12.995Z,40.51
2019-02-23T11:03:44.501Z,40.90
2019-02-23T11:06:15.802Z,38.84
2019-02-23T11:08:46.750Z,39.71
2019-02-23T11:11:17.569Z,40.09
2019-02-23T11:13:48.311Z,40.78
2019-02-23T11:16:19.134Z,40.91
2019-02-23T11:18:49.946Z,39.14
2019-02-23T11:21:20.923Z,37.66
2019-02-23T11:23:51.776Z,38.69
2019-02-23T11:26:22.697Z,38.82
2019-02-23T11:28:53.688Z,39.33
2019-02-23T11:31:24.496Z,38.83
2019-02-23T11:33:55.303Z,38.38
2019-02-23T11:36:26.035Z,39.59
2019-02-23T11:38:56.779Z,39.85
2019-02-23T11:41:28.028Z,40.03
2019-02-23T11:43:58.854Z,39.67
2019-02-23T11:46:29.592Z,40.62
2019-02-23T11:49:00.430Z,40.53
2019-02-23T11:51:31.159Z,41.14
2019-02-23T11:54:01.934Z,41.70
2019-02-23T11:56:32.733Z,40.96
2019-02-23T11:59:03.782Z,40.61
2019-02-23T12:01:34.520Z,41.19
2019-02-23T12:04:05.356Z,41.52
2019-02-23T12:06:35.841Z,41.39
2019-02-23T12:09:07.221Z,41.71
2019-02-23T12:11:38.067Z,42.31
2019-02-23T12:14:09.996Z,42.95
2019-02-23T12:16:40.759Z,43.17
2019-02-23T12:19:11.495Z,43.12
2019-02-23T12:21:42.248Z,43.17
2019-02-23T12:24:14.619Z,43.40
2019-02-23T12:26:45.438Z,43.29
2019-02-23T12:29:16.148Z,43.17
2019-02-23T12:31:46.916Z,41.92
2019-02-23T12:34:17.726Z,42.30
2019-02-23T12:36:49.094Z,41.50
2019-02-23T12:39:19.837Z,41.00
2019-02-23T12:41:51.282Z,41.84
2019-02-23T12:44:23.222Z,41.26
2019-02-23T12:46:53.959Z,40.88
2019-02-23T12:49:24.748Z,41.89
2019-02-23T12:51:55.535Z,40.50
2019-02-23T12:54:28.213Z,39.62
2019-02-23T12:56:58.671Z,40.29
2019-02-23T12:59:29.483Z,40.44
2019-02-23T13:02:00.310Z,40.44
2019-02-23T13:04:31.170Z,40.83
2019-02-23T13:07:02.019Z,41.41
2019-02-23T13:09:33.548Z,39.18
2019-02-23T13:12:25.380Z,38.16
2019-02-23T13:14:58.931Z,37.93
2019-02-23T13:17:33.158Z,38.55
2019-02-23T13:20:18.930Z,38.16
2019-02-23T13:23:12.472Z,38.62
2019-02-23T13:25:55.455Z,38.69
2019-02-23T13:28:45.657Z,38.64
2019-02-23T13:31:43.520Z,38.77
2019-02-23T13:34:36.941Z,38.80
2019-02-23T13:37:16.853Z,37.86
2019-02-23T13:39:53.460Z,37.59
2019-02-23T13:42:42.188Z,37.65
2019-02-23T13:45:37.180Z,38.49
2019-02-23T13:48:38.231Z,38.30
2019-02-23T13:51:29.477Z,38.81
2019-02-23T13:54:08.644Z,38.62
2019-02-23T13:56:48.422Z,38.39
2019-02-23T13:59:37.565Z,38.64
2019-02-23T14:02:19.690Z,38.39
2019-02-23T14:04:53.494Z,38.81
2019-02-23T14:07:30.061Z,38.48
2019-02-23T14:10:21.993Z,39.23
2019-02-23T14:12:55.910Z,39.71
2019-02-23T14:15:46.232Z,39.32
2019-02-23T14:18:39.382Z,39.06
2019-02-23T14:21:19.209Z,39.67
2019-02-23T14:23:55.614Z,40.09
2019-02-23T14:26:58.195Z,40.22
2019-02-23T14:32:35.602Z,40.26
2019-02-23T14:35:30.581Z,39.11
2019-02-23T14:38:13.004Z,38.89
2019-02-23T14:40:59.033Z,39.59
2019-02-23T14:43:38.554Z,39.26
2019-02-23T14:46:24.205Z,39.43
2019-02-23T14:49:09.909Z,39.85
2019-02-23T14:51:46.567Z,39.85
2019-02-23T14:54:40.547Z,39.36
2019-02-23T14:57:14.392Z,38.88
2019-02-23T14:59:51.008Z,38.78
2019-02-23T15:02:53.728Z,39.39
2019-02-23T15:05:27.702Z,38.92
2019-02-23T15:08:30.318Z,39.55
2019-02-23T15:11:19.139Z,39.61
2019-02-23T15:13:58.426Z,38.90
2019-02-23T15:16:44.578Z,39.80
2019-02-23T15:19:18.441Z,39.51
2019-02-23T15:22:07.363Z,39.80
2019-02-23T15:24:57.840Z,39.70
2019-02-23T15:27:43.748Z,39.67
2019-02-23T15:30:34.189Z,39.45
2019-02-23T15:33:28.864Z,38.55
2019-02-23T15:36:19.117Z,39.48
2019-02-23T15:39:14.315Z,39.67
2019-02-23T15:42:06.185Z,39.80
2019-02-23T15:44:48.716Z,40.43
2019-02-23T15:47:25.238Z,40.36
2019-02-23T15:49:56.247Z,39.66
2019-02-23T15:52:28.682Z,40.08
2019-02-23T15:54:59.478Z,40.84
2019-02-23T15:57:30.322Z,39.94
2019-02-23T16:00:01.052Z,39.62
2019-02-23T16:02:31.801Z,40.26
2019-02-23T16:05:02.733Z,40.07
2019-02-23T16:07:33.555Z,40.32
2019-02-23T16:10:05.019Z,40.83
2019-02-23T16:12:35.849Z,40.03
2019-02-23T16:15:07.502Z,40.51
2019-02-23T16:17:39.792Z,40.95
2019-02-23T16:20:10.661Z,41.33
2019-02-23T16:22:41.467Z,41.45
2019-02-23T16:25:12.289Z,40.89
2019-02-23T16:27:43.270Z,40.88
2019-02-23T16:30:14.188Z,40.40
2019-02-23T16:32:44.996Z,40.53
2019-02-23T16:35:17.548Z,40.81
2019-02-23T16:37:49.845Z,41.00
2019-02-23T16:40:20.687Z,40.93
2019-02-23T16:42:51.436Z,41.69
2019-02-23T16:45:22.174Z,41.81
2019-02-23T16:47:52.891Z,41.31
2019-02-23T16:50:26.394Z,42.06
2019-02-23T16:52:57.230Z,42.03
2019-02-23T16:55:29.502Z,42.22
2019-02-23T16:58:00.262Z,42.44
2019-02-23T17:00:30.787Z,42.95
2019-02-23T17:03:01.602Z,43.19
2019-02-23T17:05:32.803Z,43.56
2019-02-23T17:08:03.705Z,44.43
2019-02-23T17:10:34.177Z,44.80
2019-02-23T17:13:07.001Z,44.86
2019-02-23T17:15:37.836Z,45.05
2019-02-23T17:18:08.678Z,45.57
2019-02-23T17:20:39.318Z,46.30
2019-02-23T17:23:11.385Z,46.37
2019-02-23T17:25:45.145Z,46.15
2019-02-23T17:28:16.034Z,46.52
2019-02-23T17:30:46.831Z,46.82
2019-02-23T17:33:21.946Z,47.06
2019-02-23T17:35:52.913Z,47.18
2019-02-23T17:38:23.653Z,47.06
2019-02-23T17:41:06.914Z,47.36
2019-02-23T17:43:42.733Z,47.45
2019-02-23T17:46:13.566Z,48.02
2019-02-23T17:48:44.764Z,48.11
2019-02-23T17:51:15.562Z,48.17
2019-02-23T17:53:46.379Z,48.11
2019-02-23T17:56:17.348Z,48.11
2019-02-23T17:58:48.166Z,48.23
2019-02-23T18:01:19.015Z,49.01
2019-02-23T18:03:49.516Z,48.62
2019-02-23T18:06:24.854Z,48.68
2019-02-23T18:08:57.147Z,48.47
2019-02-23T18:11:27.604Z,48.86
2019-02-23T18:13:58.413Z,48.80
2019-02-23T18:16:29.239Z,48.85
2019-02-23T18:19:00.094Z,48.85
2019-02-23T18:21:31.020Z,48.91
2019-02-23T18:24:02.362Z,48.85
2019-02-23T18:26:33.223Z,48.82
2019-02-23T18:29:03.939Z,48.67
2019-02-23T18:31:38.614Z,48.63
2019-02-23T18:34:09.412Z,48.91
2019-02-23T18:36:43.926Z,48.99
2019-02-23T18:39:18.042Z,49.38
2019-02-23T18:41:48.774Z,49.56
2019-02-23T18:44:19.610Z,49.62
2019-02-23T18:46:50.336Z,49.53
2019-02-23T18:49:21.072Z,49.67
2019-02-23T18:51:56.063Z,49.61
2019-02-23T18:54:29.118Z,49.85
2019-02-23T18:56:59.962Z,49.79
2019-02-23T18:59:30.795Z,49.97
2019-02-23T19:02:01.640Z,49.82
2019-02-23T19:04:35.145Z,50.29
2019-02-23T19:07:05.979Z,49.99
2019-02-23T19:09:36.790Z,49.87
2019-02-23T19:12:07.615Z,50.17
2019-02-23T19:14:38.728Z,49.96
2019-02-23T19:17:09.532Z,50.07
2019-02-23T19:19:40.362Z,50.43
2019-02-23T19:22:10.835Z,50.55
2019-02-23T19:24:41.738Z,50.25
2019-02-23T19:27:17.147Z,50.58
2019-02-23T19:29:54.974Z,50.39
2019-02-23T19:32:25.807Z,50.27
2019-02-23T19:34:56.636Z,50.15
2019-02-23T19:37:27.340Z,50.12
2019-02-23T19:39:58.312Z,49.90
2019-02-23T19:42:29.749Z,50.35
2019-02-23T19:45:00.584Z,50.32
2019-02-23T19:47:31.938Z,50.17
2019-02-23T19:50:03.277Z,50.11
2019-02-23T19:52:33.776Z,50.05
2019-02-23T19:55:07.853Z,50.35
2019-02-23T19:57:41.017Z,50.11
2019-02-23T20:00:11.971Z,50.05
2019-02-23T20:02:42.811Z,50.37
2019-02-23T20:05:13.829Z,50.10
2019-02-23T20:07:44.668Z,50.49
2019-02-23T20:10:16.899Z,50.60
2019-02-23T20:12:47.658Z,51.17
2019-02-23T20:15:18.157Z,51.35
2019-02-23T20:17:49.042Z,50.75
2019-02-23T20:20:21.081Z,50.96
2019-02-23T20:22:51.958Z,50.75
2019-02-23T20:25:22.888Z,50.78
2019-02-23T20:27:53.738Z,50.87
2019-02-23T20:30:24.271Z,50.92
2019-02-23T20:32:55.132Z,51.11
2019-02-23T20:35:26.034Z,51.31
2019-02-23T20:37:56.999Z,51.28
2019-02-23T20:40:27.909Z,51.13
2019-02-23T20:42:58.757Z,51.21
2019-02-23T20:45:31.121Z,51.15
2019-02-23T20:48:01.658Z,51.24
2019-02-23T20:50:32.607Z,51.47
2019-02-23T20:53:03.524Z,51.41
2019-02-23T20:55:34.461Z,51.09
2019-02-23T20:58:05.575Z,51.14
2019-02-23T21:00:36.343Z,51.56
2019-02-23T21:03:08.829Z,51.91
2019-02-23T21:05:39.672Z,52.03
2019-02-23T21:08:10.582Z,52.08
2019-02-23T21:10:41.651Z,52.31
2019-02-23T21:13:12.482Z,52.17
2019-02-23T21:15:43.078Z,52.37
2019-02-23T21:18:13.904Z,52.05
2019-02-23T21:20:44.756Z,52.08
2019-02-23T21:23:17.043Z,51.90
2019-02-23T21:25:47.884Z,51.75
2019-02-23T21:28:18.335Z,52.16
2019-02-23T21:30:49.315Z,52.24
2019-02-23T21:33:21.605Z,52.05
2019-02-23T21:35:52.322Z,52.06
2019-02-23T21:38:23.180Z,52.24
2019-02-23T21:40:54.034Z,52.36
2019-02-23T21:43:24.873Z,52.62
2019-02-23T21:45:58.640Z,52.68
2019-02-23T21:48:29.185Z,52.86
2019-02-23T21:51:00.064Z,52.71
2019-02-23T21:53:32.288Z,52.06
2019-02-23T21:56:03.070Z,52.20
2019-02-23T21:58:33.882Z,52.50
2019-02-23T22:01:04.872Z,52.73
2019-02-23T22:03:35.442Z,52.53
2019-02-23T22:06:06.173Z,52.77
2019-02-23T22:08:37.042Z,52.97
2019-02-23T22:11:07.875Z,53.32
2019-02-23T22:13:38.808Z,53.67
2019-02-23T22:16:11.063Z,52.99
2019-02-23T22:18:42.014Z,52.61
2019-02-23T22:21:13.354Z,52.49
2019-02-23T22:23:44.313Z,52.46
2019-02-23T22:26:14.826Z,52.02
2019-02-23T22:28:45.767Z,51.99
2019-02-23T22:31:18.161Z,52.05
2019-02-23T22:33:48.698Z,52.52
2019-02-23T22:36:19.525Z,52.46
2019-02-23T22:38:50.338Z,52.66
2019-02-23T22:41:21.189Z,52.54
2019-02-23T22:43:51.661Z,52.51
2019-02-23T22:46:22.424Z,52.39
2019-02-23T22:48:53.261Z,52.19
2019-02-23T22:51:23.990Z,52.16
2019-02-23T22:53:54.779Z,52.22
2019-02-23T22:56:25.224Z,52.42
2019-02-23T22:58:56.022Z,52.50
2019-02-23T23:01:33.188Z,52.74
2019-02-23T23:04:04.140Z,52.80
2019-02-23T23:06:39.728Z,52.44
2019-02-23T23:09:11.753Z,52.47
2019-02-23T23:11:42.450Z,53.05
2019-02-23T23:14:13.298Z,53.05
2019-02-23T23:16:44.141Z,52.90
2019-02-23T23:19:14.965Z,53.40
2019-02-23T23:21:45.711Z,53.13
2019-02-23T23:24:16.166Z,53.05
2019-02-23T23:26:46.870Z,53.13
2019-02-23T23:29:17.814Z,53.01
2019-02-23T23:31:48.550Z,53.25
2019-02-23T23:34:19.381Z,53.19
2019-02-23T23:36:50.107Z,53.36
2019-02-23T23:39:20.950Z,53.42
2019-02-23T23:41:51.676Z,53.42
2019-02-23T23:44:22.101Z,53.42
2019-02-23T23:46:52.981Z,53.42
2019-02-23T23:49:23.670Z,53.19
2019-02-23T23:51:54.401Z,53.24
2019-02-23T23:54:25.146Z,53.18
2019-02-23T23:56:55.887Z,53.30
2019-02-23T23:59:26.632Z,53.45
